Time;durP1;ratioP1;P1;durP2;ratioP2;P2;SDS_P1;SDS_P2;PMS_P1;PMS_P2;Temp;Humidity;BMP_temperature;BMP_pressure;BME280_temperature;BME280_humidity;BME280_pressure;Samples;Min_cycle;Max_cycle;Signal;HPM_P1;HPM_P2
2023/09/17 00:02:04;;;;;;;11.00;8.80;;;;;;;-144.30;91.45;84994.91;5069485;28;20204;-57
2023/09/17 00:04:30;;;;;;;9.50;8.55;;;;;;;-144.30;90.97;84967.06;5069961;28;20191;-57
2023/09/17 00:06:58;;;;;;;9.93;8.90;;;;;;;-144.30;91.16;84998.88;5069495;28;20196;-57
2023/09/17 00:09:26;;;;;;;11.00;8.80;;;;;;;-144.30;91.33;84975.00;5069689;28;20203;-57
2023/09/17 00:11:53;;;;;;;9.52;8.73;;;;;;;-144.30;91.63;84961.09;5069363;28;20202;-57
2023/09/17 00:14:20;;;;;;;9.80;9.00;;;;;;;-144.30;91.33;84947.19;5070002;28;20576;-57
2023/09/17 00:16:47;;;;;;;10.02;9.10;;;;;;;-144.30;91.53;84980.97;5069144;28;20191;-57
2023/09/17 00:19:14;;;;;;;9.40;8.50;;;;;;;-144.30;91.36;84965.06;5069466;28;20231;-57
2023/09/17 00:21:41;;;;;;;11.90;9.90;;;;;;;-144.30;91.57;84943.22;5069503;28;20199;-58
2023/09/17 00:24:08;;;;;;;12.18;11.07;;;;;;;-144.30;92.24;84979.00;5069232;28;20196;-58
2023/09/17 00:26:36;;;;;;;14.27;12.43;;;;;;;-144.30;92.47;84929.28;5069201;28;20224;-56
2023/09/17 00:29:04;;;;;;;12.48;11.27;;;;;;;-144.30;92.44;84957.13;5069574;28;20206;-56
2023/09/17 00:31:31;;;;;;;19.85;12.02;;;;;;;-144.30;92.15;84959.13;5069719;28;20676;-57
2023/09/17 00:33:57;;;;;;;12.85;11.60;;;;;;;-144.30;92.44;84941.22;5069439;28;20584;-56
2023/09/17 00:36:24;;;;;;;12.65;11.43;;;;;;;-144.30;92.09;84909.41;5069346;28;20202;-56
2023/09/17 00:38:51;;;;;;;12.25;10.68;;;;;;;-144.30;92.56;84977.00;5068463;28;20261;-58
2023/09/17 00:41:18;;;;;;;12.30;10.93;;;;;;;-144.30;92.09;84955.13;5069639;28;20192;-59
2023/09/17 00:43:46;;;;;;;11.00;10.00;;;;;;;-144.30;91.77;84907.44;5069448;28;20578;-57
2023/09/17 00:46:14;;;;;;;10.38;9.48;;;;;;;-144.30;92.06;84921.34;5069099;28;20228;-55
2023/09/17 00:48:42;;;;;;;11.02;9.95;;;;;;;-144.30;92.21;84925.31;5069243;28;20223;-56
2023/09/17 00:51:09;;;;;;;11.95;10.45;;;;;;;-144.30;92.47;85000.84;5069323;28;20533;-58
2023/09/17 00:53:36;;;;;;;11.07;9.80;;;;;;;-144.30;92.62;84951.16;5069627;28;20203;-58
2023/09/17 00:56:03;;;;;;;11.15;9.98;;;;;;;-144.30;92.97;84943.22;5069088;28;20188;-58
2023/09/17 00:58:33;;;;;;;10.27;9.27;;;;;;;-144.30;93.28;84939.25;5069036;28;20202;-57
2023/09/17 01:01:03;;;;;;;12.10;10.77;;;;;;;-144.30;92.96;84937.25;5068981;28;20202;-57
2023/09/17 01:03:32;;;;;;;11.25;10.15;;;;;;;-144.30;93.00;84935.25;5069270;28;20585;-56
2023/09/17 01:06:02;;;;;;;11.20;10.10;;;;;;;-144.30;93.03;84951.16;5068688;28;20220;-57
2023/09/17 01:08:29;;;;;;;12.00;10.77;;;;;;;-144.30;92.95;84943.22;5069093;28;20210;-57
2023/09/17 01:10:56;;;;;;;15.07;10.32;;;;;;;-144.30;93.46;85010.78;5068794;28;20196;-57
2023/09/17 01:13:24;;;;;;;11.27;10.18;;;;;;;-144.30;93.32;84917.38;5069210;28;20245;-58
2023/09/17 01:15:52;;;;;;;11.20;9.93;;;;;;;-144.30;93.73;84971.03;5068799;28;20654;-58
2023/09/17 01:18:21;;;;;;;16.90;11.13;;;;;;;-144.30;93.77;84909.41;5068732;28;20235;-58
2023/09/17 01:21:00;;;;;;;12.38;10.15;;;;;;;-144.30;93.72;84959.13;5068878;28;20195;-57
2023/09/17 01:23:34;;;;;;;12.02;10.75;;;;;;;-144.30;94.06;84990.91;5069219;28;20608;-58
2023/09/17 01:26:08;;;;;;;11.45;10.32;;;;;;;-144.30;94.33;84996.88;5068831;28;20227;-58
2023/09/17 01:28:36;;;;;;;11.75;10.52;;;;;;;-144.30;94.55;84965.06;5068859;28;20198;-57
2023/09/17 01:31:04;;;;;;;14.23;11.15;;;;;;;-144.30;94.75;84957.13;5068652;28;20203;-57
2023/09/17 01:33:33;;;;;;;12.15;11.00;;;;;;;-144.30;94.69;85010.78;5068955;28;20200;-57
2023/09/17 01:36:04;;;;;;;12.10;10.75;;;;;;;-144.30;95.04;84899.47;5068686;28;20203;-57
2023/09/17 01:38:34;;;;;;;13.55;12.25;;;;;;;-144.30;95.46;84990.91;5068905;28;20225;-57
2023/09/17 01:41:02;;;;;;;12.95;11.75;;;;;;;-144.30;95.82;84977.00;5068674;28;20601;-58
2023/09/17 01:43:30;;;;;;;13.85;11.65;;;;;;;-144.30;95.45;84979.00;5068547;28;20207;-56
2023/09/17 01:46:00;;;;;;;15.10;11.90;;;;;;;-144.30;95.58;85018.75;5068303;28;20231;-56
2023/09/17 01:48:28;;;;;;;18.95;12.43;;;;;;;-144.30;95.48;84996.88;5068717;28;20200;-56
2023/09/17 01:50:56;;;;;;;17.27;13.65;;;;;;;-144.30;95.91;85004.84;5070456;28;20199;-57
2023/09/17 01:53:23;;;;;;;16.85;13.18;;;;;;;-144.30;95.90;84982.97;5072142;28;20196;-57
2023/09/17 01:55:52;;;;;;;15.02;12.93;;;;;;;-144.30;96.05;84967.06;5071746;28;20188;-57
2023/09/17 01:58:21;;;;;;;21.02;13.27;;;;;;;-144.30;96.42;85068.44;5072272;28;20257;-56
2023/09/17 02:00:49;;;;;;;15.68;13.63;;;;;;;-144.30;96.55;84990.91;5072024;28;20200;-57
2023/09/17 02:03:18;;;;;;;14.15;12.93;;;;;;;-144.30;96.61;84998.88;5072102;28;20196;-56
2023/09/17 02:05:45;;;;;;;19.10;13.25;;;;;;;-144.30;96.68;84994.91;5071784;28;20228;-57
2023/09/17 02:08:11;;;;;;;14.88;13.32;;;;;;;-144.30;96.77;85016.75;5072341;28;20200;-56
2023/09/17 02:10:40;;;;;;;17.80;14.75;;;;;;;-144.30;96.78;84931.28;5071972;28;20561;-56
2023/09/17 02:13:07;;;;;;;15.38;13.77;;;;;;;-144.30;96.74;85036.63;5071837;28;20199;-56
2023/09/17 02:15:34;;;;;;;16.25;14.65;;;;;;;-144.30;96.55;84971.03;5071844;28;20757;-56
2023/09/17 02:18:01;;;;;;;19.38;16.00;;;;;;;-144.30;96.51;85010.78;5071404;28;20233;-57
2023/09/17 02:20:29;;;;;;;17.38;15.20;;;;;;;-144.30;96.77;85020.72;5071884;28;20235;-57
2023/09/17 02:22:56;;;;;;;16.73;14.95;;;;;;;-144.30;97.00;85034.66;5071389;28;20283;-56
2023/09/17 02:25:23;;;;;;;16.63;14.93;;;;;;;-144.30;97.02;85042.59;5071552;28;20273;-56
2023/09/17 02:27:50;;;;;;;18.92;15.70;;;;;;;-144.30;97.39;85030.66;5071638;28;20196;-56
2023/09/17 02:30:16;;;;;;;17.80;15.07;;;;;;;-144.30;97.38;85030.66;5071623;28;20196;-56
2023/09/17 02:32:43;;;;;;;19.30;15.90;;;;;;;-144.30;97.68;85030.66;5071607;28;20200;-56
2023/09/17 02:35:11;;;;;;;16.90;15.20;;;;;;;-144.30;97.95;85046.56;5071272;28;20257;-56
2023/09/17 02:37:39;;;;;;;17.15;15.15;;;;;;;-144.30;98.17;85006.81;5071001;28;20196;-56
2023/09/17 02:40:09;;;;;;;18.55;15.63;;;;;;;-144.30;98.38;85034.66;5071042;28;20203;-56
2023/09/17 02:42:36;;;;;;;17.90;14.07;;;;;;;-144.30;98.00;85012.78;5070008;28;20199;-58
2023/09/17 02:45:05;;;;;;;17.15;14.63;;;;;;;-144.30;97.86;85004.84;5069746;28;20269;-58
2023/09/17 02:47:33;;;;;;;15.07;13.50;;;;;;;-144.30;97.46;85006.81;5070087;28;20294;-58
2023/09/17 02:50:00;;;;;;;14.18;12.43;;;;;;;-144.30;97.22;85014.78;5069925;28;20284;-58
2023/09/17 02:52:27;;;;;;;19.58;14.05;;;;;;;-144.30;97.11;85022.72;5071034;28;20287;-56
2023/09/17 02:54:56;;;;;;;16.27;13.07;;;;;;;-144.30;97.68;85036.63;5070782;28;20203;-56
2023/09/17 02:57:23;;;;;;;14.40;12.98;;;;;;;-144.30;97.37;85002.84;5064164;28;20247;-56
2023/09/17 02:59:51;;;;;;;14.88;13.18;;;;;;;-144.30;97.87;85026.69;5067592;28;20189;-57
2023/09/17 03:02:18;;;;;;;19.25;13.63;;;;;;;-144.30;98.17;85060.50;5069847;28;20200;-56
2023/09/17 03:04:45;;;;;;;16.30;13.75;;;;;;;-144.30;98.31;85000.84;5070247;28;20265;-57
2023/09/17 03:07:14;;;;;;;16.20;13.88;;;;;;;-144.30;98.12;84971.03;5070185;28;20226;-56
2023/09/17 03:09:42;;;;;;;15.70;14.07;;;;;;;-144.30;98.31;85054.53;5070344;28;20196;-56
2023/09/17 03:12:10;;;;;;;26.38;14.95;;;;;;;-144.30;97.96;85006.81;5069390;28;20643;-56
2023/09/17 03:14:38;;;;;;;16.30;14.07;;;;;;;-144.30;97.99;85603.19;5069143;28;20219;-56
2023/09/17 03:17:05;;;;;;;18.80;14.60;;;;;;;-144.30;98.19;85040.59;5068348;28;20200;-56
2023/09/17 03:19:32;;;;;;;15.85;14.20;;;;;;;-144.30;98.13;85034.66;5069052;28;20199;-56
2023/09/17 03:21:59;;;;;;;18.67;14.20;;;;;;;-144.30;98.04;85046.56;5068130;28;20198;-56
2023/09/17 03:24:26;;;;;;;18.33;14.45;;;;;;;-144.30;97.60;85072.41;5069002;28;20191;-56
2023/09/17 03:26:53;;;;;;;18.13;14.35;;;;;;;-144.30;97.86;85072.41;5068775;28;20208;-56
2023/09/17 03:29:24;;;;;;;17.85;14.63;;;;;;;-144.30;98.10;85076.38;5069316;28;20626;-56
2023/09/17 03:31:51;;;;;;;16.88;13.68;;;;;;;-144.30;98.11;85070.44;5068289;28;20259;-57
2023/09/17 03:34:17;;;;;;;15.23;13.43;;;;;;;-144.30;97.08;85092.28;5069015;28;20580;-55
2023/09/17 03:36:44;;;;;;;18.45;14.00;;;;;;;-144.30;95.42;85080.38;5068973;28;20598;-55
2023/09/17 03:39:12;;;;;;;15.13;13.63;;;;;;;-144.30;94.72;85108.19;5068753;28;20218;-56
2023/09/17 03:41:40;;;;;;;16.38;14.77;;;;;;;-144.30;94.34;85118.13;5068370;28;20195;-56
2023/09/17 03:44:07;;;;;;;15.05;13.45;;;;;;;-144.30;94.46;85074.41;5068146;28;20228;-57
2023/09/17 03:46:36;;;;;;;16.75;15.02;;;;;;;-144.30;94.58;85102.22;5067337;28;20269;-57
2023/09/17 03:49:04;;;;;;;21.95;14.50;;;;;;;-144.30;94.95;85122.09;5066299;28;20664;-57
2023/09/17 03:51:31;;;;;;;18.25;14.55;;;;;;;-144.30;94.91;85124.09;5068540;28;20196;-57
2023/09/17 03:53:59;;;;;;;20.77;15.25;;;;;;;-144.30;94.75;85092.28;5068411;28;20323;-57
2023/09/17 03:56:27;;;;;;;20.23;15.65;;;;;;;-144.30;95.13;85072.41;5065331;28;20747;-56
2023/09/17 03:58:54;;;;;;;22.98;17.23;;;;;;;-144.30;95.34;85070.44;5069007;28;20202;-55
2023/09/17 04:01:21;;;;;;;22.17;16.55;;;;;;;-144.30;95.36;85122.09;5069472;28;20207;-56
2023/09/17 04:03:49;;;;;;;26.92;16.27;;;;;;;-144.30;95.12;85078.38;5068122;28;20195;-56
2023/09/17 04:06:16;;;;;;;19.20;15.80;;;;;;;-144.30;95.21;85090.31;5069221;28;20223;-56
2023/09/17 04:08:43;;;;;;;18.58;16.02;;;;;;;-144.30;95.34;85118.13;5069962;28;20200;-55
2023/09/17 04:11:15;;;;;;;24.58;16.15;;;;;;;-144.30;95.37;85082.34;5068847;28;20235;-55
2023/09/17 04:13:43;;;;;;;24.60;17.13;;;;;;;-144.30;95.55;85114.16;5069061;28;20195;-57
2023/09/17 04:16:12;;;;;;;18.27;16.23;;;;;;;-144.30;95.42;85108.19;5068422;28;20235;-56
2023/09/17 04:18:39;;;;;;;22.25;17.08;;;;;;;-144.30;95.13;85114.16;5066245;28;20253;-55
2023/09/17 04:21:07;;;;;;;19.58;16.02;;;;;;;-144.30;95.25;85096.25;5068876;28;20200;-56
2023/09/17 04:23:35;;;;;;;23.00;17.73;;;;;;;-144.30;95.13;85096.25;5069654;28;20599;-56
2023/09/17 04:26:02;;;;;;;21.17;17.23;;;;;;;-144.30;95.24;85092.28;5069251;28;20258;-56
2023/09/17 04:28:29;;;;;;;19.17;16.25;;;;;;;-144.30;95.52;85112.16;5069326;28;20230;-55
2023/09/17 04:30:56;;;;;;;20.17;16.23;;;;;;;-144.30;95.16;85082.34;5069025;28;20605;-55
2023/09/17 04:33:24;;;;;;;20.63;16.92;;;;;;;-144.30;94.86;85064.47;5069410;28;20272;-56
2023/09/17 04:35:56;;;;;;;22.83;17.00;;;;;;;-144.30;94.43;85076.38;5069314;28;20192;-56
2023/09/17 04:38:24;;;;;;;19.10;16.33;;;;;;;-144.30;93.91;85064.47;5069302;28;20202;-55
2023/09/17 04:40:51;;;;;;;19.55;16.20;;;;;;;-144.30;93.71;85028.69;5069019;28;20287;-57
2023/09/17 04:43:20;;;;;;;22.65;16.33;;;;;;;-144.30;93.19;85054.53;5069534;28;20206;-55
2023/09/17 04:45:47;;;;;;;19.45;16.65;;;;;;;-144.30;93.10;85048.56;5069403;28;20222;-55
2023/09/17 04:48:16;;;;;;;24.00;16.35;;;;;;;-144.30;92.65;84996.88;5068953;28;20202;-55
2023/09/17 04:50:44;;;;;;;24.30;17.25;;;;;;;-144.30;92.66;85024.72;5069096;28;20195;-56
2023/09/17 04:53:11;;;;;;;20.98;17.17;;;;;;;-144.30;92.71;85010.78;5068490;28;20287;-56
2023/09/17 04:55:39;;;;;;;20.35;17.27;;;;;;;-144.30;92.34;84967.06;5068514;28;20188;-56
2023/09/17 04:58:06;;;;;;;23.77;17.60;;;;;;;-144.30;91.92;84998.88;5068214;28;20204;-55
2023/09/17 05:00:34;;;;;;;18.45;16.33;;;;;;;-144.30;91.86;84980.97;5068333;28;20200;-54
2023/09/17 05:03:01;;;;;;;24.98;17.60;;;;;;;-144.30;91.70;84921.34;5065628;28;20664;-55
2023/09/17 05:05:28;;;;;;;23.52;17.75;;;;;;;-144.30;91.32;84927.31;5068747;28;20223;-55
2023/09/17 05:07:54;;;;;;;21.15;17.00;;;;;;;-144.30;90.41;84891.53;5068848;28;20216;-55
2023/09/17 05:10:21;;;;;;;19.58;17.50;;;;;;;-144.30;89.30;84804.06;5069174;28;20198;-54
2023/09/17 05:12:50;;;;;;;24.15;16.75;;;;;;;-144.30;88.16;84724.56;5069065;28;20192;-55
2023/09/17 05:15:17;;;;;;;24.25;17.02;;;;;;;-144.30;84.79;84641.09;5069034;28;20195;-55
2023/09/17 05:17:43;;;;;;;20.83;15.82;;;;;;;-144.30;81.53;84438.38;5066802;28;20232;-57
2023/09/17 05:20:11;;;;;;;23.42;16.05;;;;;;;-144.30;79.11;84392.66;5066517;28;20302;-57
2023/09/17 05:22:38;;;;;;;16.80;15.02;;;;;;;-144.30;75.72;84255.53;5068728;28;20249;-57
2023/09/17 05:25:09;;;;;;;18.95;15.57;;;;;;;-144.30;73.46;84078.69;5070508;28;20200;-57
2023/09/17 05:27:36;;;;;;;21.38;15.68;;;;;;;-144.30;70.71;83977.34;5052801;28;20235;-56
2023/09/17 05:30:05;;;;;;;19.10;15.68;;;;;;;-144.30;68.62;83915.75;5071173;28;20562;-57
2023/09/17 05:32:32;;;;;;;19.85;15.07;;;;;;;-144.30;67.75;83877.97;5068927;28;20188;-57
2023/09/17 05:34:59;;;;;;;17.05;14.90;;;;;;;-144.30;67.06;83891.88;5071653;28;20671;-56
2023/09/17 05:37:26;;;;;;;17.40;15.48;;;;;;;-144.30;63.72;83850.16;5071634;28;20200;-57
2023/09/17 05:39:53;;;;;;;20.95;15.15;;;;;;;-144.30;64.57;84048.88;5068346;28;20196;-56
2023/09/17 05:42:20;;;;;;;19.95;16.02;;;;;;;-144.30;66.14;84124.38;5071099;28;20274;-56
2023/09/17 05:44:47;;;;;;;19.58;15.93;;;;;;;-144.30;67.79;84253.56;5071444;28;20200;-57
2023/09/17 05:47:16;;;;;;;17.15;15.45;;;;;;;-144.30;69.46;84297.28;5069863;28;20220;-57
2023/09/17 05:49:43;;;;;;;18.73;16.02;;;;;;;-144.30;70.67;84329.06;5071074;28;20200;-56
2023/09/17 05:52:10;;;;;;;16.70;15.00;;;;;;;-144.30;70.22;84283.38;5070981;28;20257;-56
2023/09/17 05:54:37;;;;;;;19.25;15.85;;;;;;;-144.30;69.08;84219.78;5071111;28;20218;-57
2023/09/17 05:57:04;;;;;;;16.23;14.63;;;;;;;-144.30;66.68;84084.66;5070773;28;20188;-56
2023/09/17 05:59:31;;;;;;;17.65;14.63;;;;;;;-144.30;64.45;83876.00;5071417;28;20198;-56
2023/09/17 06:01:58;;;;;;;17.70;12.73;;;;;;;-144.30;60.14;83703.13;5071240;28;20706;-57
2023/09/17 06:04:27;;;;;;;16.13;13.48;;;;;;;-144.30;58.83;83591.84;5070220;28;20196;-57
2023/09/17 06:06:54;;;;;;;15.25;13.75;;;;;;;-144.30;56.73;83472.66;5071670;28;20220;-56
2023/09/17 06:09:21;;;;;;;19.50;14.40;;;;;;;-144.30;55.39;83399.13;5071851;28;20287;-56
2023/09/17 06:11:48;;;;;;;16.70;14.18;;;;;;;-144.30;54.63;83299.78;5071533;28;20196;-55
2023/09/17 06:14:15;;;;;;;18.05;14.15;;;;;;;-144.30;53.72;83214.38;5071519;28;20287;-56
2023/09/17 06:16:42;;;;;;;15.02;13.48;;;;;;;-144.30;51.63;83035.56;5071393;28;20192;-56
2023/09/17 06:19:09;;;;;;;19.48;13.25;;;;;;;-144.30;49.73;82912.41;5070380;28;20242;-56
2023/09/17 06:21:37;;;;;;;18.00;13.80;;;;;;;-144.30;49.23;82832.94;5071289;28;20283;-56
2023/09/17 06:24:05;;;;;;;16.58;14.07;;;;;;;-144.30;48.08;82701.84;5070812;28;20287;-56
2023/09/17 06:26:32;;;;;;;16.15;14.32;;;;;;;-144.30;47.59;82662.09;5071059;28;20192;-55
2023/09/17 06:28:59;;;;;;;20.52;12.85;;;;;;;-144.30;47.11;82658.13;5070753;28;20646;-55
2023/09/17 06:31:26;;;;;;;34.75;15.00;;;;;;;-144.30;46.75;82527.03;5071411;28;20204;-56
2023/09/17 06:33:54;;;;;;;17.13;11.25;;;;;;;-144.30;45.32;82491.28;5071542;28;20287;-56
2023/09/17 06:36:23;;;;;;;35.78;14.07;;;;;;;-144.30;45.96;82582.66;5071027;28;20219;-54
2023/09/17 06:38:51;;;;;;;7.75;7.03;;;;;;;-144.30;45.49;82586.63;5071399;28;20210;-55
2023/09/17 06:41:18;;;;;;;9.75;8.93;;;;;;;-144.30;46.41;82759.44;5071195;28;20196;-56
2023/09/17 06:43:47;;;;;;;11.18;9.98;;;;;;;-144.30;46.84;82703.81;5071056;28;20218;-56
2023/09/17 06:46:14;;;;;;;13.20;9.40;;;;;;;-144.30;46.87;82705.81;5071102;28;20287;-56
2023/09/17 06:48:41;;;;;;;10.43;9.40;;;;;;;-144.30;45.83;82574.72;5070707;28;20216;-56
2023/09/17 06:51:07;;;;;;;10.90;9.68;;;;;;;-144.30;45.74;82586.63;5070962;28;20199;-56
2023/09/17 06:53:34;;;;;;;11.88;10.65;;;;;;;-144.30;46.26;82691.91;5071125;28;20202;-57
2023/09/17 06:56:03;;;;;;;15.95;11.98;;;;;;;-144.30;46.29;82638.28;5070727;28;20196;-57
2023/09/17 06:58:30;;;;;;;13.75;12.40;;;;;;;-144.30;45.90;82566.78;5070872;28;20192;-56
2023/09/17 07:00:57;;;;;;;13.15;11.93;;;;;;;-144.30;45.70;82624.38;5070771;28;20199;-56
2023/09/17 07:03:23;;;;;;;13.95;12.15;;;;;;;-144.30;45.49;82266.84;5071208;28;20198;-56
2023/09/17 07:05:50;;;;;;;14.32;12.60;;;;;;;-144.30;45.20;82523.06;5070997;28;20603;-56
2023/09/17 07:08:17;;;;;;;16.73;13.75;;;;;;;-144.30;44.92;82397.94;5070438;28;20246;-56
2023/09/17 07:10:45;;;;;;;15.82;14.32;;;;;;;-144.30;45.08;82445.59;5069982;28;20202;-56
2023/09/17 07:13:13;;;;;;;20.98;14.30;;;;;;;-144.30;44.51;82431.69;5070381;28;20625;-55
2023/09/17 07:15:40;;;;;;;16.73;14.43;;;;;;;-144.30;44.18;82300.63;5070034;28;20274;-55
2023/09/17 07:18:08;;;;;;;15.70;14.05;;;;;;;-144.30;44.28;82356.22;5069232;28;20230;-57
2023/09/17 07:20:35;;;;;;;16.88;14.95;;;;;;;-144.30;44.64;82465.47;5070478;28;20193;-56
2023/09/17 07:23:02;;;;;;;19.60;15.07;;;;;;;-144.30;44.99;82560.81;5070326;28;20192;-56
2023/09/17 07:25:29;;;;;;;16.67;14.98;;;;;;;-144.30;46.24;82757.47;5070596;28;20198;-59
2023/09/17 07:27:56;;;;;;;15.98;14.30;;;;;;;-144.30;48.03;82870.69;5070303;28;20259;-58
2023/09/17 07:30:25;;;;;;;18.05;15.85;;;;;;;-144.30;49.61;83240.19;5070510;28;20191;-59
2023/09/17 07:32:51;;;;;;;16.60;14.52;;;;;;;-144.30;47.94;82860.75;5070331;28;20208;-58
2023/09/17 07:35:18;;;;;;;17.10;13.73;;;;;;;-144.30;48.83;82938.22;5070208;28;20211;-61
2023/09/17 07:37:45;;;;;;;15.25;13.27;;;;;;;-144.30;50.53;83218.34;5070151;28;20690;-59
2023/09/17 07:40:13;;;;;;;15.18;13.25;;;;;;;-144.30;53.56;83424.97;5070188;28;20192;-56
2023/09/17 07:42:40;;;;;;;19.52;13.48;;;;;;;-144.30;55.92;83504.44;5070196;28;20238;-58
2023/09/17 07:45:08;;;;;;;15.65;11.80;;;;;;;-144.30;55.08;83420.97;5070093;28;20202;-59
2023/09/17 07:47:36;;;;;;;14.05;10.85;;;;;;;-144.30;52.64;83202.44;5069205;28;20633;-58
2023/09/17 07:50:03;;;;;;;11.75;10.23;;;;;;;-144.30;50.75;83041.53;5069757;28;20637;-56
2023/09/17 07:52:30;;;;;;;13.65;10.73;;;;;;;-144.30;49.12;82898.50;5069775;28;20758;-57
2023/09/17 07:54:57;;;;;;;11.23;10.05;;;;;;;-144.30;47.86;82717.72;5070466;28;20680;-58
2023/09/17 07:57:24;;;;;;;12.32;10.18;;;;;;;-144.30;45.23;82411.84;5069235;28;20286;-56
2023/09/17 07:59:52;;;;;;;12.70;11.40;;;;;;;-144.30;43.94;82256.91;5069404;28;20192;-57
2023/09/17 08:02:19;;;;;;;11.63;10.50;;;;;;;-144.30;41.90;82060.28;5068939;28;20280;-57
2023/09/17 08:04:47;;;;;;;14.93;11.18;;;;;;;-144.30;41.62;82111.94;5069122;28;20204;-58
2023/09/17 08:07:14;;;;;;;13.10;10.55;;;;;;;-144.30;42.15;82256.91;5069025;28;20220;-57
2023/09/17 08:09:41;;;;;;;12.57;11.30;;;;;;;-144.30;44.10;82572.72;5069127;28;20196;-57
2023/09/17 08:12:08;;;;;;;12.55;11.30;;;;;;;-144.30;45.61;82753.50;5069103;28;20648;-56
2023/09/17 08:14:35;;;;;;;12.90;11.57;;;;;;;-144.30;47.17;82924.31;5069491;28;20738;-56
2023/09/17 08:17:02;;;;;;;12.80;11.20;;;;;;;-144.30;49.28;82902.47;5068627;28;20199;-55
2023/09/17 08:19:29;;;;;;;13.95;12.48;;;;;;;-144.30;51.93;83407.06;5068751;28;20192;-56
2023/09/17 08:21:58;;;;;;;15.05;12.73;;;;;;;-144.30;53.47;83504.44;5068814;28;20202;-57
2023/09/17 08:24:25;;;;;;;15.35;12.40;;;;;;;-144.30;54.62;83564.03;5068872;28;20312;-57
2023/09/17 08:26:52;;;;;;;14.30;13.00;;;;;;;-144.30;55.27;83579.94;5069192;28;20298;-57
2023/09/17 08:29:20;;;;;;;19.42;14.35;;;;;;;-144.30;55.58;83591.84;5068891;28;20703;-57
2023/09/17 08:31:47;;;;;;;14.82;13.25;;;;;;;-144.30;54.82;83671.34;5068547;28;20261;-56
2023/09/17 08:34:14;;;;;;;16.75;13.27;;;;;;;-144.30;54.92;83677.28;5068704;28;20208;-56
2023/09/17 08:36:41;;;;;;;15.13;13.52;;;;;;;-144.30;55.82;83721.00;5069342;28;20199;-58
2023/09/17 08:39:11;;;;;;;18.02;14.40;;;;;;;-144.30;55.47;83719.03;5068736;28;20192;-57
2023/09/17 08:41:40;;;;;;;19.63;14.07;;;;;;;-144.30;56.24;83709.09;5069312;28;20726;-56
2023/09/17 08:44:08;;;;;;;15.75;13.30;;;;;;;-144.30;56.53;83721.00;5068676;28;20196;-57
2023/09/17 08:46:37;;;;;;;16.73;13.23;;;;;;;-144.30;55.70;83647.50;5069167;28;20233;-55
2023/09/17 08:49:04;;;;;;;16.13;12.63;;;;;;;-144.30;55.01;83681.28;5069244;28;20646;-57
2023/09/17 08:51:35;;;;;;;15.65;12.13;;;;;;;-144.30;55.01;83693.19;5069447;28;20710;-57
2023/09/17 08:54:06;;;;;;;16.70;12.75;;;;;;;-144.30;53.79;83419.00;5069153;28;20196;-56
2023/09/17 08:56:38;;;;;;;14.68;12.13;;;;;;;-144.30;54.49;83768.69;5069403;28;20639;-57
2023/09/17 08:59:10;;;;;;;14.20;12.75;;;;;;;-144.30;54.96;83820.34;5069580;28;20587;-55
2023/09/17 09:01:40;;;;;;;20.02;12.60;;;;;;;-144.30;54.79;83844.19;5073186;28;20196;-57
2023/09/17 09:04:09;;;;;;;19.08;13.90;;;;;;;-144.30;55.22;84120.41;5073170;28;20583;-56
2023/09/17 09:06:36;;;;;;;15.38;12.52;;;;;;;-144.30;55.51;83885.94;5073250;28;20684;-56
2023/09/17 09:09:05;;;;;;;16.23;13.07;;;;;;;-144.30;55.91;83854.13;5073012;28;20735;-56
2023/09/17 09:11:33;;;;;;;14.82;12.95;;;;;;;-144.30;56.05;83911.75;5072933;28;20286;-56
2023/09/17 09:14:03;;;;;;;15.52;13.55;;;;;;;-144.30;56.70;83929.66;5072935;28;20287;-56
2023/09/17 09:16:32;;;;;;;13.35;11.95;;;;;;;-144.30;57.16;83939.59;5072788;28;20199;-56
2023/09/17 09:19:00;;;;;;;14.73;12.65;;;;;;;-144.30;57.43;84009.13;5072329;28;20231;-58
2023/09/17 09:21:28;;;;;;;19.15;12.38;;;;;;;-144.30;57.10;83985.28;5072769;28;20196;-56
2023/09/17 09:23:57;;;;;;;17.33;11.88;;;;;;;-144.30;56.98;83993.22;5073035;28;20564;-58
2023/09/17 09:26:33;;;;;;;17.08;12.38;;;;;;;-144.30;56.94;83997.22;5072400;28;20299;-56
2023/09/17 09:29:03;;;;;;;20.35;12.55;;;;;;;-144.30;57.62;84044.91;5072941;28;20246;-57
2023/09/17 09:31:31;;;;;;;15.75;12.77;;;;;;;-144.30;57.70;84036.94;5072930;28;20572;-56
2023/09/17 09:33:59;;;;;;;40.35;14.70;;;;;;;-144.30;57.62;84015.09;5073316;28;20277;-56
2023/09/17 09:36:28;;;;;;;48.63;14.90;;;;;;;-144.30;57.21;84001.19;5073192;28;20279;-57
2023/09/17 09:38:56;;;;;;;50.53;14.98;;;;;;;-144.30;56.85;83929.66;5073122;28;20599;-57
2023/09/17 09:41:23;;;;;;;24.10;14.20;;;;;;;-144.30;56.30;83933.63;5073202;28;20211;-56
2023/09/17 09:43:50;;;;;;;21.70;12.27;;;;;;;-144.30;56.12;83885.94;5073100;28;20203;-55
2023/09/17 09:46:19;;;;;;;16.75;11.75;;;;;;;-144.30;55.76;83945.53;5073047;28;20196;-56
2023/09/17 09:48:47;;;;;;;20.33;12.82;;;;;;;-144.30;56.10;83915.75;5073027;28;20582;-56
2023/09/17 09:51:16;;;;;;;16.33;12.48;;;;;;;-144.30;56.04;83931.63;5072964;28;20287;-56
2023/09/17 09:53:43;;;;;;;14.50;12.18;;;;;;;-144.30;56.07;83935.59;5072944;28;20200;-56
2023/09/17 09:56:11;;;;;;;22.33;12.68;;;;;;;-144.30;55.59;83897.84;5072777;28;20200;-57
2023/09/17 09:58:40;;;;;;;19.30;13.48;;;;;;;-144.30;55.20;83897.84;5073013;28;20203;-56
2023/09/17 10:01:07;;;;;;;17.67;12.60;;;;;;;-144.30;55.34;83889.91;5072986;28;20737;-56
2023/09/17 10:03:35;;;;;;;19.98;12.98;;;;;;;-144.30;55.56;83933.63;5072785;28;20715;-56
2023/09/17 10:06:07;;;;;;;48.65;13.75;;;;;;;-144.30;55.16;83907.78;5072904;28;20254;-57
2023/09/17 10:08:35;;;;;;;41.08;15.45;;;;;;;-144.30;55.86;83858.09;5072728;28;20602;-57
2023/09/17 10:11:05;;;;;;;28.92;14.88;;;;;;;-144.30;55.01;83838.25;5071002;28;20210;-57
2023/09/17 10:13:33;;;;;;;32.60;14.18;;;;;;;-144.30;54.93;83877.97;5071767;28;20204;-56
2023/09/17 10:16:02;;;;;;;15.23;12.43;;;;;;;-144.30;54.97;83766.72;5071553;28;20257;-57
2023/09/17 10:18:31;;;;;;;15.35;12.30;;;;;;;-144.30;54.47;83879.97;5071278;28;20239;-58
2023/09/17 10:21:00;;;;;;;16.88;12.70;;;;;;;-144.30;54.30;83911.75;5071523;28;20250;-57
2023/09/17 10:23:29;;;;;;;16.77;13.85;;;;;;;-144.30;54.13;83883.94;5072212;28;20200;-57
2023/09/17 10:25:59;;;;;;;14.90;11.40;;;;;;;-144.30;53.64;83726.97;5071947;28;20206;-57
2023/09/17 10:28:26;;;;;;;15.55;12.88;;;;;;;-144.30;53.75;83858.09;5072098;28;20223;-57
2023/09/17 10:30:55;;;;;;;13.18;11.70;;;;;;;-144.30;53.50;83677.28;5071046;28;20200;-57
2023/09/17 10:33:24;;;;;;;27.15;12.20;;;;;;;-144.30;53.01;83786.56;5071675;28;20643;-57
2023/09/17 10:35:53;;;;;;;15.63;11.77;;;;;;;-144.30;53.01;83818.38;5071083;28;20237;-56
2023/09/17 10:38:24;;;;;;;18.85;11.50;;;;;;;-144.30;52.49;83786.56;5070322;28;20196;-58
2023/09/17 10:40:51;;;;;;;16.15;10.23;;;;;;;-144.30;51.37;83838.25;5069767;28;20196;-57
2023/09/17 10:43:19;;;;;;;17.08;10.60;;;;;;;-144.30;51.11;83909.78;5070532;28;20206;-58
2023/09/17 10:45:48;;;;;;;19.30;9.27;;;;;;;-144.30;49.38;83794.53;5070397;28;20196;-58
2023/09/17 10:48:15;;;;;;;13.88;8.90;;;;;;;-144.30;49.31;83786.56;5070434;28;20230;-58
2023/09/17 10:50:43;;;;;;;16.10;10.57;;;;;;;-144.30;50.33;83828.31;5070027;28;20296;-58
2023/09/17 10:53:10;;;;;;;18.90;11.07;;;;;;;-144.30;50.60;83800.50;5070247;28;20198;-57
2023/09/17 10:55:46;;;;;;;11.05;9.77;;;;;;;-144.30;50.48;83818.38;5070163;28;20206;-59
2023/09/17 10:58:18;;;;;;;11.63;9.80;;;;;;;-144.30;49.93;83784.59;5069841;28;20223;-57
2023/09/17 11:00:46;;;;;;;13.68;9.75;;;;;;;-144.30;49.99;83746.84;5069855;28;20203;-55
2023/09/17 11:03:19;;;;;;;11.88;9.18;;;;;;;-144.30;49.66;83760.75;5070503;28;20291;-56
2023/09/17 11:05:46;;;;;;;14.73;9.52;;;;;;;-144.30;49.71;83778.63;5070201;28;20192;-57